Time,TemperatureF,DewpointF,PressureIn,WindDirection,WindDirectionDegrees,WindSpeedMPH,WindSpeedGustMPH,Humidity,HourlyPrecipIn,Conditions,Clouds,dailyrainin,SoftwareType,DateUTC
2013-03-24 00:02:00,69.0,68.0,29.64,ESE,123,0.0,0.0,98,0.00,,,0.07,,2013-03-24 05:02:00,
2013-03-24 00:12:00,69.0,68.0,29.64,ESE,123,0.0,0.0,98,0.00,,,0.07,,2013-03-24 05:12:00,
2013-03-24 00:22:00,69.0,68.0,29.64,North,354,0.0,0.0,98,0.00,,,0.07,,2013-03-24 05:22:00,
2013-03-24 00:32:00,69.0,68.0,29.65,North,354,0.0,0.0,98,0.00,,,0.07,,2013-03-24 05:32:00,
2013-03-24 00:43:00,69.0,68.0,29.65,North,354,0.0,0.0,98,0.00,,,0.07,,2013-03-24 05:43:00,
2013-03-24 00:52:00,69.0,68.0,29.65,North,8,2.0,9.0,98,0.00,,,0.07,,2013-03-24 05:52:00,
2013-03-24 01:02:00,69.0,68.0,29.65,North,8,2.0,9.0,98,0.00,,,0.07,,2013-03-24 06:02:00,
2013-03-24 01:12:00,69.0,68.0,29.65,North,8,2.0,9.0,98,0.00,,,0.07,,2013-03-24 06:12:00,
2013-03-24 01:22:00,67.0,66.0,29.65,NE,40,5.0,10.0,97,0.00,,,0.07,,2013-03-24 06:22:00,
2013-03-24 01:32:00,66.0,65.0,29.65,NE,34,6.0,13.0,97,0.00,,,0.07,,2013-03-24 06:32:00,
2013-03-24 01:42:00,66.0,65.0,29.65,NE,34,6.0,13.0,97,0.00,,,0.07,,2013-03-24 06:42:00,
2013-03-24 01:52:00,65.0,64.0,29.65,NNE,20,4.0,10.0,96,0.00,,,0.07,,2013-03-24 06:52:00,
2013-03-24 02:02:00,64.0,63.0,29.66,NNE,28,4.0,8.0,96,0.00,,,0.07,,2013-03-24 07:02:00,
2013-03-24 02:12:00,64.0,63.0,29.66,NNE,28,4.0,8.0,96,0.00,,,0.07,,2013-03-24 07:12:00,
2013-03-24 02:22:00,64.0,63.0,29.66,NNE,21,0.0,0.0,97,0.00,,,0.07,,2013-03-24 07:22:00,
2013-03-24 02:32:00,63.0,62.0,29.67,NNE,21,0.0,0.0,97,0.00,,,0.07,,2013-03-24 07:32:00,
2013-03-24 02:42:00,63.0,62.0,29.67,NNE,21,0.0,0.0,97,0.00,,,0.07,,2013-03-24 07:42:00,
2013-03-24 02:52:00,63.0,62.0,29.67,NNE,21,0.0,0.0,97,0.00,,,0.07,,2013-03-24 07:52:00,
2013-03-24 03:03:00,63.0,62.0,29.67,NNE,21,0.0,0.0,97,0.00,,,0.07,,2013-03-24 08:03:00,
2013-03-24 03:12:00,63.0,62.0,29.67,NNE,21,0.0,0.0,97,0.00,,,0.07,,2013-03-24 08:12:00,
2013-03-24 03:22:00,63.0,62.0,29.67,NNE,18,0.0,0.0,97,0.00,,,0.07,,2013-03-24 08:22:00,
2013-03-24 03:32:00,62.0,61.0,29.67,NNE,18,0.0,0.0,97,0.00,,,0.07,,2013-03-24 08:32:00,
2013-03-24 03:42:00,62.0,61.0,29.67,NNE,18,0.0,0.0,97,0.00,,,0.07,,2013-03-24 08:42:00,
2013-03-24 03:52:00,62.0,61.0,29.67,NNE,18,0.0,0.0,97,0.00,,,0.07,,2013-03-24 08:52:00,
2013-03-24 04:02:00,62.0,61.0,29.66,NNE,18,0.0,0.0,97,0.00,,,0.07,,2013-03-24 09:02:00,
2013-03-24 04:12:00,62.0,61.0,29.66,NNE,18,0.0,0.0,97,0.00,,,0.07,,2013-03-24 09:12:00,
2013-03-24 04:22:00,62.0,61.0,29.66,NNE,18,0.0,0.0,97,0.00,,,0.07,,2013-03-24 09:22:00,
2013-03-24 04:33:00,61.0,60.0,29.64,NNE,18,0.0,0.0,97,0.00,,,0.07,,2013-03-24 09:33:00,
2013-03-24 04:42:00,61.0,60.0,29.64,NNE,18,0.0,0.0,97,0.00,,,0.07,,2013-03-24 09:42:00,
2013-03-24 04:52:00,61.0,60.0,29.65,NNE,18,0.0,0.0,97,0.00,,,0.07,,2013-03-24 09:52:00,
2013-03-24 05:02:00,61.0,60.0,29.65,NNE,18,0.0,0.0,97,0.00,,,0.07,,2013-03-24 10:02:00,
2013-03-24 05:12:00,61.0,60.0,29.65,NNE,18,0.0,0.0,97,0.00,,,0.07,,2013-03-24 10:12:00,
2013-03-24 05:22:00,61.0,60.0,29.65,NNE,18,0.0,0.0,97,0.00,,,0.07,,2013-03-24 10:22:00,
2013-03-24 05:32:00,61.0,60.0,29.64,NNE,18,0.0,0.0,97,0.00,,,0.07,,2013-03-24 10:32:00,
2013-03-24 05:42:00,61.0,60.0,29.64,NNE,18,0.0,0.0,97,0.00,,,0.07,,2013-03-24 10:42:00,
2013-03-24 05:52:00,61.0,60.0,29.64,NNE,18,0.0,0.0,97,0.00,,,0.07,,2013-03-24 10:52:00,
2013-03-24 06:03:00,61.0,60.0,29.71,North,355,1.0,7.0,97,0.00,,,0.07,,2013-03-24 11:03:00,
2013-03-24 06:12:00,61.0,60.0,29.71,North,355,1.0,7.0,97,0.00,,,0.07,,2013-03-24 11:12:00,
2013-03-24 06:22:00,61.0,60.0,29.72,NNE,16,1.0,9.0,97,0.00,,,0.07,,2013-03-24 11:22:00,
2013-03-24 06:32:00,61.0,60.0,29.74,North,8,1.0,7.0,97,0.00,,,0.07,,2013-03-24 11:32:00,
2013-03-24 06:42:00,61.0,60.0,29.74,North,8,1.0,7.0,97,0.00,,,0.07,,2013-03-24 11:42:00,
2013-03-24 06:52:00,61.0,60.0,29.74,North,350,2.0,5.0,97,0.00,,,0.07,,2013-03-24 11:52:00,
2013-03-24 07:02:00,60.0,59.0,29.75,North,353,0.0,5.0,97,0.00,,,0.07,,2013-03-24 12:02:00,
2013-03-24 07:12:00,60.0,59.0,29.75,North,353,0.0,5.0,97,0.00,,,0.07,,2013-03-24 12:12:00,
2013-03-24 07:22:00,60.0,59.0,29.76,NNW,345,4.0,8.0,97,0.00,,,0.07,,2013-03-24 12:22:00,
2013-03-24 07:32:00,60.0,59.0,29.77,NNW,345,0.0,9.0,97,0.00,,,0.07,,2013-03-24 12:32:00,
2013-03-24 07:42:00,60.0,59.0,29.77,NNW,345,0.0,9.0,97,0.00,,,0.07,,2013-03-24 12:42:00,
2013-03-24 07:52:00,60.0,59.0,29.77,NNW,345,0.0,9.0,97,0.00,,,0.07,,2013-03-24 12:52:00,
2013-03-24 08:02:00,60.0,59.0,29.81,North,354,6.0,16.0,96,0.00,,,0.07,,2013-03-24 13:02:00,
2013-03-24 08:12:00,60.0,59.0,29.81,North,354,6.0,16.0,96,0.00,,,0.07,,2013-03-24 13:12:00,
2013-03-24 08:22:00,60.0,59.0,29.79,NNE,21,2.0,10.0,96,0.00,,,0.07,,2013-03-24 13:22:00,
2013-03-24 08:32:00,60.0,59.0,29.82,North,2,5.0,13.0,96,0.00,,,0.07,,2013-03-24 13:32:00,
2013-03-24 08:42:00,60.0,59.0,29.82,North,2,5.0,13.0,96,0.00,,,0.07,,2013-03-24 13:42:00,
2013-03-24 08:52:00,60.0,59.0,29.82,North,2,5.0,13.0,96,0.00,,,0.07,,2013-03-24 13:52:00,
2013-03-24 09:02:00,60.0,59.0,29.82,North,2,5.0,13.0,96,0.00,,,0.07,,2013-03-24 14:02:00,
2013-03-24 09:12:00,60.0,59.0,29.82,North,2,5.0,13.0,96,0.00,,,0.07,,2013-03-24 14:12:00,
2013-03-24 09:22:00,60.0,59.0,29.84,North,0,5.0,14.0,95,0.00,,,0.07,,2013-03-24 14:22:00,
2013-03-24 09:33:00,60.0,58.0,29.85,North,349,6.0,17.0,92,0.00,,,0.07,,2013-03-24 14:33:00,
2013-03-24 09:42:00,60.0,58.0,29.85,North,349,6.0,17.0,92,0.00,,,0.07,,2013-03-24 14:42:00,
2013-03-24 09:52:00,60.0,58.0,29.85,North,349,6.0,17.0,92,0.00,,,0.07,,2013-03-24 14:52:00,
2013-03-24 10:02:00,63.0,59.0,29.86,NNW,335,5.0,10.0,86,0.00,,,0.07,,2013-03-24 15:02:00,
2013-03-24 10:12:00,63.0,59.0,29.86,NNW,335,5.0,10.0,86,0.00,,,0.07,,2013-03-24 15:12:00,
2013-03-24 10:22:00,63.0,58.0,29.86,NNW,344,6.0,12.0,85,0.00,,,0.07,,2013-03-24 15:22:00,
2013-03-24 10:33:00,63.0,58.0,29.86,NNW,335,5.0,15.0,84,0.00,,,0.07,,2013-03-24 15:33:00,
2013-03-24 10:43:00,63.0,58.0,29.86,NNW,335,5.0,15.0,84,0.00,,,0.07,,2013-03-24 15:43:00,
2013-03-24 10:53:00,63.0,58.0,29.86,NNW,329,4.0,12.0,83,0.00,,,0.07,,2013-03-24 15:53:00,
2013-03-24 11:02:00,62.0,57.0,29.87,NNW,337,6.0,14.0,84,0.00,,,0.07,,2013-03-24 16:02:00,
2013-03-24 11:12:00,62.0,57.0,29.87,NNW,337,6.0,14.0,84,0.00,,,0.07,,2013-03-24 16:12:00,
2013-03-24 11:22:00,62.0,56.0,29.87,NNW,330,6.0,14.0,81,0.00,,,0.07,,2013-03-24 16:22:00,
2013-03-24 11:33:00,62.0,56.0,29.88,NNW,346,5.0,14.0,80,0.00,,,0.07,,2013-03-24 16:33:00,
2013-03-24 11:42:00,62.0,56.0,29.88,NNW,346,5.0,14.0,80,0.00,,,0.07,,2013-03-24 16:42:00,
2013-03-24 11:52:00,62.0,53.0,29.88,NW,318,9.0,16.0,72,0.00,,,0.07,,2013-03-24 16:52:00,
2013-03-24 12:02:00,62.0,53.0,29.88,NW,318,9.0,16.0,72,0.00,,,0.07,,2013-03-24 17:02:00,
2013-03-24 12:12:00,62.0,53.0,29.88,NW,318,9.0,16.0,72,0.00,,,0.07,,2013-03-24 17:12:00,
2013-03-24 12:22:00,63.0,53.0,29.88,NW,318,7.0,16.0,70,0.00,,,0.07,,2013-03-24 17:22:00,
2013-03-24 12:32:00,64.0,52.0,29.88,NNW,338,9.0,16.0,64,0.00,,,0.07,,2013-03-24 17:32:00,
2013-03-24 12:43:00,64.0,52.0,29.88,NNW,338,9.0,16.0,64,0.00,,,0.07,,2013-03-24 17:43:00,
2013-03-24 12:53:00,64.0,50.0,29.88,NNW,334,7.0,20.0,60,0.00,,,0.07,,2013-03-24 17:53:00,
2013-03-24 13:02:00,65.0,50.0,29.88,NNW,346,8.0,26.0,58,0.00,,,0.07,,2013-03-24 18:02:00,
2013-03-24 13:12:00,65.0,50.0,29.88,NNW,346,8.0,26.0,58,0.00,,,0.07,,2013-03-24 18:12:00,
2013-03-24 13:22:00,65.0,50.0,29.88,NNW,346,8.0,26.0,58,0.00,,,0.07,,2013-03-24 18:22:00,
2013-03-24 13:32:00,65.0,50.0,29.88,NNW,346,8.0,26.0,58,0.00,,,0.07,,2013-03-24 18:32:00,
2013-03-24 13:42:00,65.0,50.0,29.88,NNW,346,8.0,26.0,58,0.00,,,0.07,,2013-03-24 18:42:00,
2013-03-24 13:52:00,66.0,49.0,29.87,NNW,328,6.0,16.0,55,0.00,,,0.07,,2013-03-24 18:52:00,
2013-03-24 14:02:00,67.0,51.0,29.86,North,350,6.0,18.0,56,0.00,,,0.07,,2013-03-24 19:02:00,
2013-03-24 14:12:00,67.0,51.0,29.86,North,350,6.0,18.0,56,0.00,,,0.07,,2013-03-24 19:12:00,
2013-03-24 14:22:00,67.0,51.0,29.86,North,350,6.0,18.0,56,0.00,,,0.07,,2013-03-24 19:22:00,
2013-03-24 14:32:00,66.0,48.0,29.86,NNW,340,8.0,21.0,53,0.00,,,0.07,,2013-03-24 19:32:00,
2013-03-24 14:42:00,66.0,48.0,29.86,NNW,340,8.0,21.0,53,0.00,,,0.07,,2013-03-24 19:42:00,
2013-03-24 14:52:00,66.0,48.0,29.86,NNW,340,8.0,21.0,53,0.00,,,0.07,,2013-03-24 19:52:00,
2013-03-24 15:02:00,65.0,44.0,29.87,NNW,338,9.0,21.0,46,0.00,,,0.07,,2013-03-24 20:02:00,
2013-03-24 15:12:00,65.0,44.0,29.87,NNW,338,9.0,21.0,46,0.00,,,0.07,,2013-03-24 20:12:00,
2013-03-24 15:20:00,64.0,43.0,29.86,NW,323,7.0,18.0,46,0.00,,,0.05,,2013-03-24 20:20:00,
2013-03-24 15:22:00,65.0,44.0,29.87,NNW,338,9.0,21.0,46,0.00,,,0.07,,2013-03-24 20:22:00,
2013-03-24 15:32:00,64.0,43.0,29.86,NW,323,7.0,18.0,46,0.00,,,0.05,,2013-03-24 20:32:00,
2013-03-24 15:42:00,64.0,43.0,29.86,NW,323,7.0,18.0,46,0.00,,,0.05,,2013-03-24 20:42:00,
2013-03-24 15:52:00,64.0,43.0,29.86,NW,323,7.0,18.0,46,0.00,,,0.05,,2013-03-24 20:52:00,
2013-03-24 16:02:00,64.0,43.0,29.86,NW,323,7.0,18.0,46,0.00,,,0.05,,2013-03-24 21:02:00,
2013-03-24 16:12:00,64.0,43.0,29.86,NW,323,7.0,18.0,46,0.00,,,0.05,,2013-03-24 21:12:00,
2013-03-24 16:33:00,64.0,42.0,29.86,NNE,12,6.0,20.0,44,0.00,,,0.05,,2013-03-24 21:33:00,
2013-03-24 16:43:00,64.0,42.0,29.86,NNE,12,6.0,20.0,44,0.00,,,0.05,,2013-03-24 21:43:00,
2013-03-24 16:53:00,64.0,39.0,29.87,North,0,13.0,21.0,39,0.00,,,0.03,,2013-03-24 21:53:00,
2013-03-24 17:03:00,63.0,41.0,29.88,North,357,7.0,16.0,45,0.00,,,0.03,,2013-03-24 22:03:00,
2013-03-24 17:13:00,62.0,39.0,29.88,NNE,16,13.0,21.0,43,0.00,,,0.03,,2013-03-24 22:13:00,
2013-03-24 17:22:00,62.0,39.0,29.88,NNE,16,13.0,21.0,43,0.00,,,0.03,,2013-03-24 22:22:00,
2013-03-24 17:33:00,62.0,41.0,29.88,North,357,7.0,18.0,46,0.00,,,0.01,,2013-03-24 22:33:00,
2013-03-24 17:42:00,62.0,41.0,29.88,North,357,7.0,18.0,46,0.00,,,0.01,,2013-03-24 22:42:00,
2013-03-24 17:52:00,61.0,38.0,29.89,North,351,10.0,20.0,42,0.00,,,0.01,,2013-03-24 22:52:00,
2013-03-24 18:02:00,61.0,38.0,29.88,North,10,9.0,17.0,43,0.00,,,0.00,,2013-03-24 23:02:00,
2013-03-24 18:12:00,61.0,38.0,29.88,North,10,9.0,17.0,43,0.00,,,0.00,,2013-03-24 23:12:00,
2013-03-24 18:22:00,61.0,38.0,29.88,North,10,9.0,17.0,43,0.00,,,0.00,,2013-03-24 23:22:00,
2013-03-24 18:32:00,60.0,39.0,29.90,NNW,348,8.0,18.0,45,0.00,,,0.00,,2013-03-24 23:32:00,
2013-03-24 18:42:00,60.0,39.0,29.90,NNW,348,8.0,18.0,45,0.00,,,0.00,,2013-03-24 23:42:00,
2013-03-24 18:53:00,60.0,38.0,29.91,NNE,13,6.0,23.0,44,0.00,,,0.00,,2013-03-24 23:53:00,
2013-03-24 19:02:00,60.0,38.0,29.91,NNE,13,6.0,23.0,44,0.00,,,0.00,,2013-03-25 00:02:00,
2013-03-24 19:10:00,57.0,37.0,29.94,North,3,7.0,16.0,47,0.00,,,0.00,,2013-03-25 00:10:00,
2013-03-24 19:12:00,60.0,38.0,29.91,NNE,13,6.0,23.0,44,0.00,,,0.00,,2013-03-25 00:12:00,
2013-03-24 19:22:00,60.0,38.0,29.91,NNE,13,6.0,23.0,44,0.00,,,0.00,,2013-03-25 00:22:00,
2013-03-24 19:32:00,57.0,37.0,29.94,North,3,7.0,16.0,47,0.00,,,0.00,,2013-03-25 00:32:00,
2013-03-24 19:43:00,57.0,37.0,29.94,North,3,7.0,16.0,47,0.00,,,0.00,,2013-03-25 00:43:00,
2013-03-24 19:53:00,57.0,37.0,29.94,North,3,7.0,16.0,47,0.00,,,0.00,,2013-03-25 00:53:00,
2013-03-24 20:02:00,57.0,37.0,29.94,North,3,7.0,16.0,47,0.00,,,0.00,,2013-03-25 01:02:00,
2013-03-24 20:22:00,54.0,37.0,29.99,NNE,25,9.0,15.0,53,0.00,,,0.00,,2013-03-25 01:22:00,
2013-03-24 20:32:00,54.0,38.0,30.00,North,7,6.0,15.0,55,0.00,,,0.00,,2013-03-25 01:32:00,
2013-03-24 20:42:00,54.0,38.0,30.00,North,7,6.0,15.0,55,0.00,,,0.00,,2013-03-25 01:42:00,
2013-03-24 20:52:00,53.0,37.0,30.02,NNE,14,7.0,15.0,55,0.00,,,0.00,,2013-03-25 01:52:00,
2013-03-24 21:02:00,53.0,37.0,30.02,NNE,14,7.0,15.0,55,0.00,,,0.00,,2013-03-25 02:02:00,
2013-03-24 21:12:00,53.0,37.0,30.02,NNE,14,7.0,15.0,55,0.00,,,0.00,,2013-03-25 02:12:00,
2013-03-24 21:22:00,52.0,36.0,30.04,North,5,9.0,20.0,55,0.00,,,0.00,,2013-03-25 02:22:00,
2013-03-24 21:32:00,52.0,36.0,30.04,North,5,9.0,20.0,55,0.00,,,0.00,,2013-03-25 02:32:00,
2013-03-24 21:42:00,51.0,37.0,30.07,NNE,21,7.0,18.0,59,0.00,,,0.00,,2013-03-25 02:42:00,
2013-03-24 21:52:00,51.0,37.0,30.07,NNE,21,7.0,18.0,59,0.00,,,0.00,,2013-03-25 02:52:00,
2013-03-24 22:02:00,51.0,37.0,30.07,NNE,21,7.0,18.0,59,0.00,,,0.00,,2013-03-25 03:02:00,
2013-03-24 22:13:00,51.0,37.0,30.07,NNE,21,7.0,18.0,59,0.00,,,0.00,,2013-03-25 03:13:00,
2013-03-24 22:22:00,50.0,37.0,30.09,North,7,7.0,17.0,60,0.00,,,0.00,,2013-03-25 03:22:00,
2013-03-24 22:33:00,50.0,37.0,30.10,North,3,6.0,12.0,61,0.00,,,0.00,,2013-03-25 03:33:00,
2013-03-24 22:43:00,50.0,37.0,30.10,North,3,6.0,12.0,61,0.00,,,0.00,,2013-03-25 03:43:00,
2013-03-24 22:53:00,50.0,37.0,30.10,North,3,6.0,12.0,61,0.00,,,0.00,,2013-03-25 03:53:00,
2013-03-24 23:02:00,49.0,37.0,30.11,North,6,7.0,14.0,63,0.00,,,0.00,,2013-03-25 04:02:00,
2013-03-24 23:12:00,49.0,37.0,30.11,North,6,7.0,14.0,63,0.00,,,0.00,,2013-03-25 04:12:00,
2013-03-24 23:22:00,49.0,37.0,30.12,North,7,7.0,20.0,62,0.00,,,0.00,,2013-03-25 04:22:00,
2013-03-24 23:33:00,49.0,37.0,30.13,North,6,6.0,16.0,62,0.00,,,0.00,,2013-03-25 04:33:00,
2013-03-24 23:42:00,49.0,37.0,30.13,North,6,6.0,16.0,62,0.00,,,0.00,,2013-03-25 04:42:00,
2013-03-24 23:52:00,49.0,37.0,30.13,North,6,6.0,16.0,62,0.00,,,0.00,,2013-03-25 04:52:00,